sensor_id;sensor_type;location;lat;lon;timestamp;pressure;altitude;pressure_sealevel;temperature;humidity
31911;BME280;18457;52.432;16.914;2023-04-20T00:01:30;100960.84;;;8.28;100.00
31911;BME280;18457;52.432;16.914;2023-04-20T00:04:02;100957.95;;;8.28;100.00
31911;BME280;18457;52.432;16.914;2023-04-20T00:06:34;100956.84;;;8.35;100.00
31911;BME280;18457;52.432;16.914;2023-04-20T00:09:06;100955.98;;;8.28;100.00
31911;BME280;18457;52.432;16.914;2023-04-20T00:11:38;100952.38;;;8.24;100.00
31911;BME280;18457;52.432;16.914;2023-04-20T00:14:10;100950.94;;;8.27;100.00
31911;BME280;18457;52.432;16.914;2023-04-20T00:16:42;100951.64;;;8.29;100.00
31911;BME280;18457;52.432;16.914;2023-04-20T00:19:13;100954.70;;;8.31;100.00
31911;BME280;18457;52.432;16.914;2023-04-20T00:21:46;100956.31;;;8.32;100.00
31911;BME280;18457;52.432;16.914;2023-04-20T00:24:18;100955.21;;;8.35;100.00
31911;BME280;18457;52.432;16.914;2023-04-20T00:26:50;100955.23;;;8.34;100.00
31911;BME280;18457;52.432;16.914;2023-04-20T00:29:21;100953.43;;;8.31;100.00
31911;BME280;18457;52.432;16.914;2023-04-20T00:31:53;100955.20;;;8.38;100.00
31911;BME280;18457;52.432;16.914;2023-04-20T00:34:27;100955.52;;;8.47;100.00
31911;BME280;18457;52.432;16.914;2023-04-20T00:36:58;100955.55;;;8.38;100.00
31911;BME280;18457;52.432;16.914;2023-04-20T00:39:30;100958.67;;;8.29;100.00
31911;BME280;18457;52.432;16.914;2023-04-20T00:42:06;100958.47;;;8.31;100.00
31911;BME280;18457;52.432;16.914;2023-04-20T00:44:38;100964.44;;;8.28;100.00
31911;BME280;18457;52.432;16.914;2023-04-20T00:47:10;100957.77;;;8.28;100.00
31911;BME280;18457;52.432;16.914;2023-04-20T00:49:42;100952.38;;;8.27;100.00
31911;BME280;18457;52.432;16.914;2023-04-20T00:52:14;100947.52;;;8.23;100.00
31911;BME280;18457;52.432;16.914;2023-04-20T00:54:46;100944.05;;;8.36;100.00
31911;BME280;18457;52.432;16.914;2023-04-20T00:57:19;100945.80;;;8.45;100.00
31911;BME280;18457;52.432;16.914;2023-04-20T00:59:54;100946.33;;;8.47;100.00
31911;BME280;18457;52.432;16.914;2023-04-20T01:02:27;100941.84;;;8.44;100.00
31911;BME280;18457;52.432;16.914;2023-04-20T01:04:59;100944.91;;;8.41;100.00
31911;BME280;18457;52.432;16.914;2023-04-20T01:07:32;100943.31;;;8.38;100.00
31911;BME280;18457;52.432;16.914;2023-04-20T01:10:05;100941.23;;;8.26;100.00
31911;BME280;18457;52.432;16.914;2023-04-20T01:12:37;100940.15;;;8.22;100.00
31911;BME280;18457;52.432;16.914;2023-04-20T01:15:10;100941.40;;;8.23;100.00
31911;BME280;18457;52.432;16.914;2023-04-20T01:17:42;100936.00;;;8.22;100.00
31911;BME280;18457;52.432;16.914;2023-04-20T01:20:15;100934.71;;;8.29;100.00
31911;BME280;18457;52.432;16.914;2023-04-20T01:22:48;100931.27;;;8.35;100.00
31911;BME280;18457;52.432;16.914;2023-04-20T01:25:20;100926.44;;;8.32;100.00
31911;BME280;18457;52.432;16.914;2023-04-20T01:27:52;100925.75;;;8.22;100.00
31911;BME280;18457;52.432;16.914;2023-04-20T01:30:27;100925.39;;;8.24;100.00
31911;BME280;18457;52.432;16.914;2023-04-20T01:32:59;100922.50;;;8.26;100.00
31911;BME280;18457;52.432;16.914;2023-04-20T01:35:31;100926.79;;;8.33;100.00
31911;BME280;18457;52.432;16.914;2023-04-20T01:38:04;100925.91;;;8.30;100.00
31911;BME280;18457;52.432;16.914;2023-04-20T01:40:37;100935.74;;;8.40;100.00
31911;BME280;18457;52.432;16.914;2023-04-20T01:43:09;100936.81;;;8.41;100.00
31911;BME280;18457;52.432;16.914;2023-04-20T01:45:41;100938.77;;;8.45;100.00
31911;BME280;18457;52.432;16.914;2023-04-20T01:48:13;100931.95;;;8.42;100.00
31911;BME280;18457;52.432;16.914;2023-04-20T01:50:45;100935.18;;;8.44;100.00
31911;BME280;18457;52.432;16.914;2023-04-20T01:53:17;100929.61;;;8.43;100.00
31911;BME280;18457;52.432;16.914;2023-04-20T01:55:50;100931.05;;;8.42;100.00
31911;BME280;18457;52.432;16.914;2023-04-20T01:58:24;100931.40;;;8.44;100.00
31911;BME280;18457;52.432;16.914;2023-04-20T02:00:57;100924.59;;;8.40;100.00
31911;BME280;18457;52.432;16.914;2023-04-20T02:03:30;100923.00;;;8.33;100.00
31911;BME280;18457;52.432;16.914;2023-04-20T02:06:02;100925.20;;;8.27;100.00
31911;BME280;18457;52.432;16.914;2023-04-20T02:08:34;100926.08;;;8.31;100.00
31911;BME280;18457;52.432;16.914;2023-04-20T02:11:07;100926.63;;;8.30;100.00
31911;BME280;18457;52.432;16.914;2023-04-20T02:13:41;100934.34;;;8.32;100.00
31911;BME280;18457;52.432;16.914;2023-04-20T02:16:13;100933.44;;;8.34;100.00
31911;BME280;18457;52.432;16.914;2023-04-20T02:18:45;100935.39;;;8.37;100.00
31911;BME280;18457;52.432;16.914;2023-04-20T02:21:17;100936.80;;;8.41;100.00
31911;BME280;18457;52.432;16.914;2023-04-20T02:23:49;100939.30;;;8.46;100.00
31911;BME280;18457;52.432;16.914;2023-04-20T02:26:20;100942.53;;;8.48;100.00
31911;BME280;18457;52.432;16.914;2023-04-20T02:28:53;100941.52;;;8.38;100.00
31911;BME280;18457;52.432;16.914;2023-04-20T02:31:25;100940.64;;;8.34;100.00
31911;BME280;18457;52.432;16.914;2023-04-20T02:33:57;100935.08;;;8.33;100.00
31911;BME280;18457;52.432;16.914;2023-04-20T02:36:30;100929.17;;;8.21;100.00
31911;BME280;18457;52.432;16.914;2023-04-20T02:39:01;100928.11;;;8.20;100.00
31911;BME280;18457;52.432;16.914;2023-04-20T02:41:36;100931.52;;;8.22;100.00
31911;BME280;18457;52.432;16.914;2023-04-20T02:44:08;100933.80;;;8.33;100.00
31911;BME280;18457;52.432;16.914;2023-04-20T02:46:40;100938.11;;;8.36;100.00
31911;BME280;18457;52.432;16.914;2023-04-20T02:49:12;100933.42;;;8.38;100.00
31911;BME280;18457;52.432;16.914;2023-04-20T02:51:45;100934.13;;;8.39;100.00
31911;BME280;18457;52.432;16.914;2023-04-20T02:54:17;100937.91;;;8.39;100.00
31911;BME280;18457;52.432;16.914;2023-04-20T02:56:49;100943.30;;;8.41;100.00
31911;BME280;18457;52.432;16.914;2023-04-20T02:59:22;100935.58;;;8.38;100.00
31911;BME280;18457;52.432;16.914;2023-04-20T03:02:07;100931.30;;;8.31;100.00
31911;BME280;18457;52.432;16.914;2023-04-20T03:04:40;100935.98;;;8.29;100.00
31911;BME280;18457;52.432;16.914;2023-04-20T03:07:19;100931.50;;;8.27;100.00
31911;BME280;18457;52.432;16.914;2023-04-20T03:09:52;100932.94;;;8.28;100.00
31911;BME280;18457;52.432;16.914;2023-04-20T03:13:02;100930.23;;;8.26;100.00
31911;BME280;18457;52.432;16.914;2023-04-20T03:15:39;100922.48;;;8.32;100.00
31911;BME280;18457;52.432;16.914;2023-04-20T03:18:31;100922.69;;;8.25;100.00
31911;BME280;18457;52.432;16.914;2023-04-20T03:21:03;100923.41;;;8.27;100.00
31911;BME280;18457;52.432;16.914;2023-04-20T03:23:36;100929.71;;;8.27;100.00
31911;BME280;18457;52.432;16.914;2023-04-20T03:26:08;100939.61;;;8.23;100.00
31911;BME280;18457;52.432;16.914;2023-04-20T03:28:46;100942.67;;;8.26;100.00
31911;BME280;18457;52.432;16.914;2023-04-20T03:31:23;100937.05;;;8.33;100.00
31911;BME280;18457;52.432;16.914;2023-04-20T03:33:56;100935.27;;;8.27;100.00
31911;BME280;18457;52.432;16.914;2023-04-20T03:36:27;100938.31;;;8.33;100.00
31911;BME280;18457;52.432;16.914;2023-04-20T03:39:00;100938.10;;;8.37;100.00
31911;BME280;18457;52.432;16.914;2023-04-20T03:41:32;100944.42;;;8.34;100.00
31911;BME280;18457;52.432;16.914;2023-04-20T03:44:04;100944.98;;;8.29;100.00
31911;BME280;18457;52.432;16.914;2023-04-20T03:46:36;100946.05;;;8.31;100.00
31911;BME280;18457;52.432;16.914;2023-04-20T03:49:08;100946.96;;;8.30;100.00
31911;BME280;18457;52.432;16.914;2023-04-20T03:51:42;100943.75;;;8.26;100.00
31911;BME280;18457;52.432;16.914;2023-04-20T03:54:16;100944.64;;;8.29;100.00
31911;BME280;18457;52.432;16.914;2023-04-20T03:56:48;100947.86;;;8.32;100.00
31911;BME280;18457;52.432;16.914;2023-04-20T03:59:20;100946.96;;;8.31;100.00
31911;BME280;18457;52.432;16.914;2023-04-20T04:01:52;100948.59;;;8.29;100.00
31911;BME280;18457;52.432;16.914;2023-04-20T04:04:24;100945.91;;;8.25;100.00
31911;BME280;18457;52.432;16.914;2023-04-20T04:06:57;100942.13;;;8.22;100.00
31911;BME280;18457;52.432;16.914;2023-04-20T04:09:29;100938.19;;;8.19;100.00
31911;BME280;18457;52.432;16.914;2023-04-20T04:12:01;100942.84;;;8.23;100.00
31911;BME280;18457;52.432;16.914;2023-04-20T04:14:35;100941.58;;;8.28;100.00
31911;BME280;18457;52.432;16.914;2023-04-20T04:17:06;100940.52;;;8.24;100.00
31911;BME280;18457;52.432;16.914;2023-04-20T04:19:39;100944.98;;;8.29;100.00
31911;BME280;18457;52.432;16.914;2023-04-20T04:22:13;100942.09;;;8.33;100.00
31911;BME280;18457;52.432;16.914;2023-04-20T04:24:56;100940.23;;;8.40;100.00
31911;BME280;18457;52.432;16.914;2023-04-20T04:27:28;100939.11;;;8.46;100.00
31911;BME280;18457;52.432;16.914;2023-04-20T04:30:06;100941.45;;;8.47;100.00
31911;BME280;18457;52.432;16.914;2023-04-20T04:32:40;100940.76;;;8.45;100.00
31911;BME280;18457;52.432;16.914;2023-04-20T04:35:14;100941.86;;;8.41;100.00
31911;BME280;18457;52.432;16.914;2023-04-20T04:37:46;100942.00;;;8.47;100.00
31911;BME280;18457;52.432;16.914;2023-04-20T04:40:21;100946.67;;;8.48;100.00
31911;BME280;18457;52.432;16.914;2023-04-20T04:42:55;100947.89;;;8.53;100.00
31911;BME280;18457;52.432;16.914;2023-04-20T04:45:28;100947.91;;;8.51;100.00
31911;BME280;18457;52.432;16.914;2023-04-20T04:47:59;100948.45;;;8.51;100.00
31911;BME280;18457;52.432;16.914;2023-04-20T04:50:32;100952.21;;;8.54;100.00
31911;BME280;18457;52.432;16.914;2023-04-20T04:53:05;100957.61;;;8.56;100.00
31911;BME280;18457;52.432;16.914;2023-04-20T04:55:37;100960.80;;;8.63;100.00
31911;BME280;18457;52.432;16.914;2023-04-20T04:58:09;100959.68;;;8.69;100.00
31911;BME280;18457;52.432;16.914;2023-04-20T05:00:41;100964.11;;;8.77;100.00
31911;BME280;18457;52.432;16.914;2023-04-20T05:03:13;100962.98;;;8.82;100.00
31911;BME280;18457;52.432;16.914;2023-04-20T05:05:44;100960.67;;;8.78;100.00
31911;BME280;18457;52.432;16.914;2023-04-20T05:08:16;100965.08;;;8.69;100.00
31911;BME280;18457;52.432;16.914;2023-04-20T05:10:48;100964.89;;;8.69;100.00
31911;BME280;18457;52.432;16.914;2023-04-20T05:13:20;100968.68;;;8.69;100.00
31911;BME280;18457;52.432;16.914;2023-04-20T05:15:51;100966.86;;;8.70;100.00
31911;BME280;18457;52.432;16.914;2023-04-20T05:18:23;100965.65;;;8.65;100.00
31911;BME280;18457;52.432;16.914;2023-04-20T05:20:55;100970.00;;;8.60;100.00
31911;BME280;18457;52.432;16.914;2023-04-20T05:23:26;100964.75;;;8.64;100.00
31911;BME280;18457;52.432;16.914;2023-04-20T05:25:58;100963.96;;;8.72;100.00
31911;BME280;18457;52.432;16.914;2023-04-20T05:28:30;100964.63;;;8.79;100.00
31911;BME280;18457;52.432;16.914;2023-04-20T05:31:03;100962.43;;;8.85;100.00
31911;BME280;18457;52.432;16.914;2023-04-20T05:33:37;100966.87;;;8.91;100.00
31911;BME280;18457;52.432;16.914;2023-04-20T05:36:10;100971.19;;;8.92;100.00
31911;BME280;18457;52.432;16.914;2023-04-20T05:38:42;100974.45;;;8.91;100.00
31911;BME280;18457;52.432;16.914;2023-04-20T05:41:14;100972.23;;;8.97;100.00
31911;BME280;18457;52.432;16.914;2023-04-20T05:43:49;100972.61;;;8.95;100.00
31911;BME280;18457;52.432;16.914;2023-04-20T05:46:22;100975.30;;;8.95;100.00
31911;BME280;18457;52.432;16.914;2023-04-20T05:48:54;100970.54;;;9.07;100.00
31911;BME280;18457;52.432;16.914;2023-04-20T05:51:26;100972.43;;;9.16;100.00
31911;BME280;18457;52.432;16.914;2023-04-20T05:54:04;100976.33;;;9.23;100.00
31911;BME280;18457;52.432;16.914;2023-04-20T05:56:36;100970.36;;;9.26;100.00
31911;BME280;18457;52.432;16.914;2023-04-20T05:59:08;100974.27;;;9.29;100.00
31911;BME280;18457;52.432;16.914;2023-04-20T06:01:40;100978.02;;;9.35;100.00
31911;BME280;18457;52.432;16.914;2023-04-20T06:04:13;100973.70;;;9.32;100.00
31911;BME280;18457;52.432;16.914;2023-04-20T06:06:45;100974.60;;;9.33;100.00
31911;BME280;18457;52.432;16.914;2023-04-20T06:09:19;100979.96;;;9.39;100.00
31911;BME280;18457;52.432;16.914;2023-04-20T06:11:52;100983.02;;;9.40;100.00
31911;BME280;18457;52.432;16.914;2023-04-20T06:14:24;100975.05;;;9.41;100.00
31911;BME280;18457;52.432;16.914;2023-04-20T06:16:56;100982.25;;;9.44;100.00
31911;BME280;18457;52.432;16.914;2023-04-20T06:19:28;100978.02;;;9.51;100.00
31911;BME280;18457;52.432;16.914;2023-04-20T06:22:01;100981.02;;;9.59;100.00
31911;BME280;18457;52.432;16.914;2023-04-20T06:24:36;100977.86;;;9.66;100.00
31911;BME280;18457;52.432;16.914;2023-04-20T06:27:12;100977.09;;;9.70;100.00
31911;BME280;18457;52.432;16.914;2023-04-20T06:29:44;100980.12;;;9.74;100.00
31911;BME280;18457;52.432;16.914;2023-04-20T06:32:15;100978.43;;;9.79;100.00
31911;BME280;18457;52.432;16.914;2023-04-20T06:34:47;100979.30;;;9.82;100.00
31911;BME280;18457;52.432;16.914;2023-04-20T06:37:21;100983.74;;;9.87;100.00
31911;BME280;18457;52.432;16.914;2023-04-20T06:39:54;100985.48;;;9.94;100.00
31911;BME280;18457;52.432;16.914;2023-04-20T06:42:26;100988.13;;;9.98;100.00
31911;BME280;18457;52.432;16.914;2023-04-20T06:45:00;100989.35;;;10.01;100.00
31911;BME280;18457;52.432;16.914;2023-04-20T06:47:32;100992.16;;;10.08;100.00
31911;BME280;18457;52.432;16.914;2023-04-20T06:50:06;100992.69;;;10.10;100.00
31911;BME280;18457;52.432;16.914;2023-04-20T06:52:40;100994.65;;;10.13;100.00
31911;BME280;18457;52.432;16.914;2023-04-20T06:55:12;100993.14;;;10.19;100.00
31911;BME280;18457;52.432;16.914;2023-04-20T06:57:44;100996.29;;;10.26;100.00
31911;BME280;18457;52.432;16.914;2023-04-20T07:00:18;100993.15;;;10.31;100.00
31911;BME280;18457;52.432;16.914;2023-04-20T07:02:51;100991.45;;;10.36;100.00
31911;BME280;18457;52.432;16.914;2023-04-20T07:05:24;100988.52;;;10.40;100.00
31911;BME280;18457;52.432;16.914;2023-04-20T07:07:58;100990.99;;;10.43;100.00
31911;BME280;18457;52.432;16.914;2023-04-20T07:10:30;100993.27;;;10.48;100.00
31911;BME280;18457;52.432;16.914;2023-04-20T07:13:01;100996.44;;;10.54;100.00
31911;BME280;18457;52.432;16.914;2023-04-20T07:15:33;100993.65;;;10.59;100.00
31911;BME280;18457;52.432;16.914;2023-04-20T07:18:06;100994.63;;;10.67;100.00
31911;BME280;18457;52.432;16.914;2023-04-20T07:20:41;100994.54;;;10.73;100.00
31911;BME280;18457;52.432;16.914;2023-04-20T07:23:13;100993.77;;;10.76;100.00
31911;BME280;18457;52.432;16.914;2023-04-20T07:25:49;100994.04;;;10.81;100.00
31911;BME280;18457;52.432;16.914;2023-04-20T07:28:23;100999.05;;;10.84;100.00
31911;BME280;18457;52.432;16.914;2023-04-20T07:30:55;101001.54;;;10.87;100.00
31911;BME280;18457;52.432;16.914;2023-04-20T07:33:31;101007.45;;;10.90;100.00
31911;BME280;18457;52.432;16.914;2023-04-20T07:36:05;101012.04;;;10.97;100.00
31911;BME280;18457;52.432;16.914;2023-04-20T07:38:38;101016.64;;;11.03;100.00
31911;BME280;18457;52.432;16.914;2023-04-20T07:41:11;101016.33;;;11.11;99.99
31911;BME280;18457;52.432;16.914;2023-04-20T07:43:42;101023.08;;;11.19;100.00
31911;BME280;18457;52.432;16.914;2023-04-20T07:46:24;101019.49;;;11.28;99.87
31911;BME280;18457;52.432;16.914;2023-04-20T07:48:58;101021.21;;;11.33;98.71
31911;BME280;18457;52.432;16.914;2023-04-20T07:51:30;101026.80;;;11.44;98.04
31911;BME280;18457;52.432;16.914;2023-04-20T07:54:04;101029.71;;;11.54;98.18
31911;BME280;18457;52.432;16.914;2023-04-20T07:56:36;101031.19;;;11.63;97.68
31911;BME280;18457;52.432;16.914;2023-04-20T07:59:08;101030.73;;;11.69;97.71
31911;BME280;18457;52.432;16.914;2023-04-20T08:01:40;101030.05;;;11.76;98.29
31911;BME280;18457;52.432;16.914;2023-04-20T08:04:13;101034.91;;;11.78;98.52
31911;BME280;18457;52.432;16.914;2023-04-20T08:06:48;101030.52;;;11.80;98.03
31911;BME280;18457;52.432;16.914;2023-04-20T08:09:20;101030.44;;;11.85;99.14
31911;BME280;18457;52.432;16.914;2023-04-20T08:11:53;101030.48;;;11.91;99.76
31911;BME280;18457;52.432;16.914;2023-04-20T08:14:26;101028.27;;;11.94;99.17
31911;BME280;18457;52.432;16.914;2023-04-20T08:16:58;101031.89;;;11.93;97.80
31911;BME280;18457;52.432;16.914;2023-04-20T08:19:30;101034.92;;;11.95;96.34
31911;BME280;18457;52.432;16.914;2023-04-20T08:22:05;101032.09;;;12.01;96.60
31911;BME280;18457;52.432;16.914;2023-04-20T08:24:37;101033.45;;;12.14;97.98
31911;BME280;18457;52.432;16.914;2023-04-20T08:27:09;101033.27;;;12.23;97.78
31911;BME280;18457;52.432;16.914;2023-04-20T08:29:41;101032.11;;;12.27;95.50
31911;BME280;18457;52.432;16.914;2023-04-20T08:32:13;101032.13;;;12.35;94.07
31911;BME280;18457;52.432;16.914;2023-04-20T08:34:48;101032.38;;;12.40;94.32
31911;BME280;18457;52.432;16.914;2023-04-20T08:37:20;101036.34;;;12.49;94.78
31911;BME280;18457;52.432;16.914;2023-04-20T08:39:53;101040.95;;;12.63;93.20
31911;BME280;18457;52.432;16.914;2023-04-20T08:42:25;101041.39;;;12.67;92.19
31911;BME280;18457;52.432;16.914;2023-04-20T08:44:57;101036.86;;;12.66;90.02
31911;BME280;18457;52.432;16.914;2023-04-20T08:47:31;101032.01;;;12.73;90.76
31911;BME280;18457;52.432;16.914;2023-04-20T08:50:05;101032.48;;;12.76;91.47
31911;BME280;18457;52.432;16.914;2023-04-20T08:52:39;101042.09;;;12.91;90.18
31911;BME280;18457;52.432;16.914;2023-04-20T08:55:16;101041.16;;;13.00;87.93
31911;BME280;18457;52.432;16.914;2023-04-20T08:57:49;101038.80;;;13.09;87.27
31911;BME280;18457;52.432;16.914;2023-04-20T09:00:22;101043.11;;;13.11;84.70
31911;BME280;18457;52.432;16.914;2023-04-20T09:02:55;101041.15;;;13.17;85.37
31911;BME280;18457;52.432;16.914;2023-04-20T09:05:30;101040.44;;;13.32;86.45
31911;BME280;18457;52.432;16.914;2023-04-20T09:08:03;101040.64;;;13.44;86.99
31911;BME280;18457;52.432;16.914;2023-04-20T09:10:39;101041.26;;;13.62;85.03
31911;BME280;18457;52.432;16.914;2023-04-20T09:13:23;101041.02;;;13.78;84.47
31911;BME280;18457;52.432;16.914;2023-04-20T09:15:55;101044.96;;;13.93;82.18
31911;BME280;18457;52.432;16.914;2023-04-20T09:18:27;101043.23;;;14.09;82.57
31911;BME280;18457;52.432;16.914;2023-04-20T09:21:08;101042.33;;;14.22;80.68
31911;BME280;18457;52.432;16.914;2023-04-20T09:23:41;101041.06;;;14.41;80.53
31911;BME280;18457;52.432;16.914;2023-04-20T09:26:15;101044.81;;;14.56;80.55
31911;BME280;18457;52.432;16.914;2023-04-20T09:28:48;101049.58;;;14.60;78.71
31911;BME280;18457;52.432;16.914;2023-04-20T09:31:21;101050.52;;;14.59;77.78
31911;BME280;18457;52.432;16.914;2023-04-20T09:34:02;101055.24;;;14.71;78.17
31911;BME280;18457;52.432;16.914;2023-04-20T09:36:39;101055.33;;;14.74;77.30
31911;BME280;18457;52.432;16.914;2023-04-20T09:39:12;101053.05;;;14.83;76.58
31911;BME280;18457;52.432;16.914;2023-04-20T09:41:45;101056.45;;;14.97;76.94
31911;BME280;18457;52.432;16.914;2023-04-20T09:44:19;101055.80;;;15.11;75.50
31911;BME280;18457;52.432;16.914;2023-04-20T09:46:52;101059.09;;;15.22;73.73
31911;BME280;18457;52.432;16.914;2023-04-20T09:49:25;101044.70;;;15.23;74.28
31911;BME280;18457;52.432;16.914;2023-04-20T09:51:59;101051.42;;;15.28;75.06
31911;BME280;18457;52.432;16.914;2023-04-20T09:54:32;101054.63;;;15.36;74.45
31911;BME280;18457;52.432;16.914;2023-04-20T09:57:06;101056.40;;;15.54;73.96
31911;BME280;18457;52.432;16.914;2023-04-20T09:59:39;101055.42;;;15.67;74.51
31911;BME280;18457;52.432;16.914;2023-04-20T10:02:14;101059.02;;;15.68;75.59
31911;BME280;18457;52.432;16.914;2023-04-20T10:05:03;101056.98;;;15.64;75.11
31911;BME280;18457;52.432;16.914;2023-04-20T10:07:57;101060.51;;;15.67;74.58
31911;BME280;18457;52.432;16.914;2023-04-20T10:10:29;101050.57;;;15.86;74.16
31911;BME280;18457;52.432;16.914;2023-04-20T10:13:03;101061.87;;;15.91;71.27
31911;BME280;18457;52.432;16.914;2023-04-20T10:15:39;101060.73;;;15.92;70.70
31911;BME280;18457;52.432;16.914;2023-04-20T10:18:22;101058.70;;;15.93;72.33
31911;BME280;18457;52.432;16.914;2023-04-20T10:21:06;101054.27;;;15.79;70.29
31911;BME280;18457;52.432;16.914;2023-04-20T10:23:49;101054.84;;;15.68;69.29
31911;BME280;18457;52.432;16.914;2023-04-20T10:26:23;101049.41;;;15.66;70.38
31911;BME280;18457;52.432;16.914;2023-04-20T10:28:55;101048.34;;;15.77;70.53
31911;BME280;18457;52.432;16.914;2023-04-20T10:31:36;101048.52;;;15.87;71.28
31911;BME280;18457;52.432;16.914;2023-04-20T10:34:09;101044.48;;;15.92;70.25
31911;BME280;18457;52.432;16.914;2023-04-20T10:36:41;101044.52;;;15.97;70.61
31911;BME280;18457;52.432;16.914;2023-04-20T10:39:18;101044.75;;;16.15;70.07
31911;BME280;18457;52.432;16.914;2023-04-20T10:41:55;101044.02;;;16.30;70.03
31911;BME280;18457;52.432;16.914;2023-04-20T10:44:29;101039.49;;;16.29;67.90
31911;BME280;18457;52.432;16.914;2023-04-20T10:47:03;101040.81;;;16.28;66.48
31911;BME280;18457;52.432;16.914;2023-04-20T10:49:35;101046.29;;;16.28;65.83
31911;BME280;18457;52.432;16.914;2023-04-20T10:52:07;101040.95;;;16.24;65.74
31911;BME280;18457;52.432;16.914;2023-04-20T10:54:39;101038.69;;;16.17;64.95
31911;BME280;18457;52.432;16.914;2023-04-20T10:57:16;101032.98;;;16.13;65.05
31911;BME280;18457;52.432;16.914;2023-04-20T10:59:48;101033.13;;;16.14;65.40
31911;BME280;18457;52.432;16.914;2023-04-20T11:02:20;101033.45;;;16.20;64.43
31911;BME280;18457;52.432;16.914;2023-04-20T11:04:53;101028.52;;;16.21;63.55
31911;BME280;18457;52.432;16.914;2023-04-20T11:07:31;101029.77;;;16.20;64.51
31911;BME280;18457;52.432;16.914;2023-04-20T11:10:03;101033.52;;;16.37;63.44
31911;BME280;18457;52.432;16.914;2023-04-20T11:12:39;101030.54;;;16.82;62.64
31911;BME280;18457;52.432;16.914;2023-04-20T11:15:12;101031.83;;;16.91;62.47
31911;BME280;18457;52.432;16.914;2023-04-20T11:17:44;101031.88;;;16.85;62.80
31911;BME280;18457;52.432;16.914;2023-04-20T11:20:16;101034.39;;;16.77;63.66
31911;BME280;18457;52.432;16.914;2023-04-20T11:22:56;101030.16;;;16.69;63.92
31911;BME280;18457;52.432;16.914;2023-04-20T11:25:29;101030.53;;;16.69;63.70
31911;BME280;18457;52.432;16.914;2023-04-20T11:28:07;101030.20;;;16.77;63.31
31911;BME280;18457;52.432;16.914;2023-04-20T11:30:42;101029.69;;;17.03;62.61
31911;BME280;18457;52.432;16.914;2023-04-20T11:33:15;101027.24;;;17.27;61.22
31911;BME280;18457;52.432;16.914;2023-04-20T11:35:56;101020.34;;;17.39;60.63
31911;BME280;18457;52.432;16.914;2023-04-20T11:38:30;101038.23;;;17.57;59.81
31911;BME280;18457;52.432;16.914;2023-04-20T11:41:03;101035.02;;;17.89;56.89
31911;BME280;18457;52.432;16.914;2023-04-20T11:43:37;101030.81;;;17.84;55.19
31911;BME280;18457;52.432;16.914;2023-04-20T11:46:15;101028.98;;;17.76;54.78
31911;BME280;18457;52.432;16.914;2023-04-20T11:48:48;101026.17;;;17.78;56.40
31911;BME280;18457;52.432;16.914;2023-04-20T11:51:20;101026.58;;;17.73;56.97
31911;BME280;18457;52.432;16.914;2023-04-20T11:53:52;101027.74;;;17.67;56.44
31911;BME280;18457;52.432;16.914;2023-04-20T11:56:25;101019.89;;;17.59;55.82
31911;BME280;18457;52.432;16.914;2023-04-20T11:58:58;101021.66;;;17.51;55.06
31911;BME280;18457;52.432;16.914;2023-04-20T12:01:31;101022.34;;;17.78;56.71
31911;BME280;18457;52.432;16.914;2023-04-20T12:04:03;101023.99;;;18.10;55.73
31911;BME280;18457;52.432;16.914;2023-04-20T12:06:35;101017.63;;;18.13;56.75
31911;BME280;18457;52.432;16.914;2023-04-20T12:09:07;101017.36;;;18.27;58.89
31911;BME280;18457;52.432;16.914;2023-04-20T12:11:39;101014.94;;;18.28;58.16
31911;BME280;18457;52.432;16.914;2023-04-20T12:14:11;101016.80;;;18.11;55.46
31911;BME280;18457;52.432;16.914;2023-04-20T12:16:43;101015.94;;;18.06;55.32
31911;BME280;18457;52.432;16.914;2023-04-20T12:19:16;101016.68;;;17.94;54.81
31911;BME280;18457;52.432;16.914;2023-04-20T12:21:48;101013.20;;;17.86;55.11
31911;BME280;18457;52.432;16.914;2023-04-20T12:24:20;101015.92;;;17.78;55.77
31911;BME280;18457;52.432;16.914;2023-04-20T12:26:53;101015.00;;;17.70;55.20
31911;BME280;18457;52.432;16.914;2023-04-20T12:29:25;101016.13;;;17.70;55.84
31911;BME280;18457;52.432;16.914;2023-04-20T12:31:57;101008.63;;;17.69;55.90
31911;BME280;18457;52.432;16.914;2023-04-20T12:34:30;101016.81;;;17.79;56.60
31911;BME280;18457;52.432;16.914;2023-04-20T12:37:02;101019.33;;;17.76;56.25
31911;BME280;18457;52.432;16.914;2023-04-20T12:39:34;101011.69;;;17.75;56.23
31911;BME280;18457;52.432;16.914;2023-04-20T12:42:06;101008.41;;;17.79;55.97
31911;BME280;18457;52.432;16.914;2023-04-20T12:44:40;101005.77;;;17.80;55.41
31911;BME280;18457;52.432;16.914;2023-04-20T12:47:12;101008.30;;;17.81;55.91
31911;BME280;18457;52.432;16.914;2023-04-20T12:49:44;101004.03;;;17.82;55.36
31911;BME280;18457;52.432;16.914;2023-04-20T12:52:15;100996.95;;;17.93;55.42
31911;BME280;18457;52.432;16.914;2023-04-20T12:54:47;100994.21;;;18.05;54.52
31911;BME280;18457;52.432;16.914;2023-04-20T12:57:19;100990.96;;;18.32;54.68
31911;BME280;18457;52.432;16.914;2023-04-20T12:59:51;100988.41;;;18.44;54.79
31911;BME280;18457;52.432;16.914;2023-04-20T13:02:30;100995.34;;;18.45;56.50
31911;BME280;18457;52.432;16.914;2023-04-20T13:05:03;100981.84;;;18.36;57.17
31911;BME280;18457;52.432;16.914;2023-04-20T13:07:35;100977.53;;;18.18;57.71
31911;BME280;18457;52.432;16.914;2023-04-20T13:10:09;100981.21;;;18.02;58.15
31911;BME280;18457;52.432;16.914;2023-04-20T13:12:41;100985.00;;;17.91;58.56